sensor_id;sensor_type;location;lat;lon;timestamp;temperature;humidity
1830;DHT22;914;48.118;11.600;2023-03-03T00:02:23;4.50;96.90
1830;DHT22;914;48.118;11.600;2023-03-03T00:04:48;4.50;96.70
1830;DHT22;914;48.118;11.600;2023-03-03T00:07:14;4.50;96.60
1830;DHT22;914;48.118;11.600;2023-03-03T00:09:46;4.40;96.60
1830;DHT22;914;48.118;11.600;2023-03-03T00:12:27;4.50;96.60
1830;DHT22;914;48.118;11.600;2023-03-03T00:14:53;4.60;96.50
1830;DHT22;914;48.118;11.600;2023-03-03T00:17:28;4.60;96.20
1830;DHT22;914;48.118;11.600;2023-03-03T00:19:54;4.60;96.20
1830;DHT22;914;48.118;11.600;2023-03-03T00:24:49;4.60;96.00
1830;DHT22;914;48.118;11.600;2023-03-03T00:27:34;4.40;95.70
1830;DHT22;914;48.118;11.600;2023-03-03T00:30:00;4.40;96.10
1830;DHT22;914;48.118;11.600;2023-03-03T00:32:42;4.40;96.10
1830;DHT22;914;48.118;11.600;2023-03-03T00:35:31;4.40;96.00
1830;DHT22;914;48.118;11.600;2023-03-03T00:38:18;4.40;95.90
1830;DHT22;914;48.118;11.600;2023-03-03T00:40:46;4.40;95.80
1830;DHT22;914;48.118;11.600;2023-03-03T00:43:30;4.40;95.80
1830;DHT22;914;48.118;11.600;2023-03-03T00:45:58;4.50;95.90
1830;DHT22;914;48.118;11.600;2023-03-03T00:48:39;4.50;95.70
1830;DHT22;914;48.118;11.600;2023-03-03T00:51:30;4.50;95.70
1830;DHT22;914;48.118;11.600;2023-03-03T00:53:57;4.40;95.50
1830;DHT22;914;48.118;11.600;2023-03-03T00:56:24;4.40;95.50
1830;DHT22;914;48.118;11.600;2023-03-03T00:58:50;4.40;95.40
1830;DHT22;914;48.118;11.600;2023-03-03T01:01:18;4.30;95.70
1830;DHT22;914;48.118;11.600;2023-03-03T01:03:44;4.30;95.90
1830;DHT22;914;48.118;11.600;2023-03-03T01:06:10;4.20;96.10
1830;DHT22;914;48.118;11.600;2023-03-03T01:08:36;4.20;96.20
1830;DHT22;914;48.118;11.600;2023-03-03T01:11:09;4.20;96.20
1830;DHT22;914;48.118;11.600;2023-03-03T01:13:37;4.20;96.30
1830;DHT22;914;48.118;11.600;2023-03-03T01:16:05;4.20;96.30
1830;DHT22;914;48.118;11.600;2023-03-03T01:18:31;4.30;96.30
1830;DHT22;914;48.118;11.600;2023-03-03T01:20:57;4.30;96.20
1830;DHT22;914;48.118;11.600;2023-03-03T01:23:23;4.30;96.00
1830;DHT22;914;48.118;11.600;2023-03-03T01:25:49;4.30;96.00
1830;DHT22;914;48.118;11.600;2023-03-03T01:28:14;4.30;96.00
1830;DHT22;914;48.118;11.600;2023-03-03T01:30:40;4.30;96.00
1830;DHT22;914;48.118;11.600;2023-03-03T01:33:06;4.30;96.00
1830;DHT22;914;48.118;11.600;2023-03-03T01:35:31;4.30;96.20
1830;DHT22;914;48.118;11.600;2023-03-03T01:37:57;4.30;95.90
1830;DHT22;914;48.118;11.600;2023-03-03T01:40:26;4.20;95.70
1830;DHT22;914;48.118;11.600;2023-03-03T01:42:52;4.20;95.90
1830;DHT22;914;48.118;11.600;2023-03-03T01:45:27;4.20;95.90
1830;DHT22;914;48.118;11.600;2023-03-03T01:53:05;4.20;96.50
1830;DHT22;914;48.118;11.600;2023-03-03T01:55:36;4.20;96.30
1830;DHT22;914;48.118;11.600;2023-03-03T01:58:12;4.20;96.20
1830;DHT22;914;48.118;11.600;2023-03-03T02:00:41;4.00;96.20
1830;DHT22;914;48.118;11.600;2023-03-03T02:03:08;4.00;96.60
1830;DHT22;914;48.118;11.600;2023-03-03T02:05:34;4.00;96.80
1830;DHT22;914;48.118;11.600;2023-03-03T02:08:00;4.10;97.00
1830;DHT22;914;48.118;11.600;2023-03-03T02:10:27;3.90;96.80
1830;DHT22;914;48.118;11.600;2023-03-03T02:12:56;3.80;97.20
1830;DHT22;914;48.118;11.600;2023-03-03T02:15:23;3.80;97.50
1830;DHT22;914;48.118;11.600;2023-03-03T02:18:01;4.00;97.70
1830;DHT22;914;48.118;11.600;2023-03-03T02:20:37;4.00;97.40
1830;DHT22;914;48.118;11.600;2023-03-03T02:28:23;4.10;97.30
1830;DHT22;914;48.118;11.600;2023-03-03T02:30:57;4.10;97.10
1830;DHT22;914;48.118;11.600;2023-03-03T02:33:24;4.20;97.00
1830;DHT22;914;48.118;11.600;2023-03-03T02:35:51;4.20;97.20
1830;DHT22;914;48.118;11.600;2023-03-03T02:38:21;4.20;96.60
1830;DHT22;914;48.118;11.600;2023-03-03T02:44:00;4.30;96.40
1830;DHT22;914;48.118;11.600;2023-03-03T02:46:28;4.20;96.20
1830;DHT22;914;48.118;11.600;2023-03-03T02:48:56;4.20;96.30
1830;DHT22;914;48.118;11.600;2023-03-03T02:51:22;4.20;96.30
1830;DHT22;914;48.118;11.600;2023-03-03T02:53:48;4.20;96.20
1830;DHT22;914;48.118;11.600;2023-03-03T02:56:14;4.20;96.20
1830;DHT22;914;48.118;11.600;2023-03-03T02:58:40;4.20;96.20
1830;DHT22;914;48.118;11.600;2023-03-03T03:01:05;4.20;96.20
1830;DHT22;914;48.118;11.600;2023-03-03T03:03:31;4.20;96.30
1830;DHT22;914;48.118;11.600;2023-03-03T03:05:57;4.20;96.30
1830;DHT22;914;48.118;11.600;2023-03-03T03:08:22;4.20;96.40
1830;DHT22;914;48.118;11.600;2023-03-03T03:10:48;4.20;96.50
1830;DHT22;914;48.118;11.600;2023-03-03T03:13:14;4.30;96.50
1830;DHT22;914;48.118;11.600;2023-03-03T03:15:40;4.30;96.50
1830;DHT22;914;48.118;11.600;2023-03-03T03:18:05;4.30;96.40
1830;DHT22;914;48.118;11.600;2023-03-03T03:20:35;4.30;96.50
1830;DHT22;914;48.118;11.600;2023-03-03T03:23:01;4.40;96.60
1830;DHT22;914;48.118;11.600;2023-03-03T03:25:27;4.50;96.60
1830;DHT22;914;48.118;11.600;2023-03-03T03:27:52;4.50;96.50
1830;DHT22;914;48.118;11.600;2023-03-03T03:30:18;4.50;96.80
1830;DHT22;914;48.118;11.600;2023-03-03T03:32:45;4.50;96.60
1830;DHT22;914;48.118;11.600;2023-03-03T03:35:11;4.30;96.70
1830;DHT22;914;48.118;11.600;2023-03-03T03:37:38;4.40;97.10
1830;DHT22;914;48.118;11.600;2023-03-03T03:40:04;4.60;97.10
1830;DHT22;914;48.118;11.600;2023-03-03T03:42:31;4.70;96.70
1830;DHT22;914;48.118;11.600;2023-03-03T03:44:56;4.70;96.60
1830;DHT22;914;48.118;11.600;2023-03-03T03:47:22;4.70;96.80
1830;DHT22;914;48.118;11.600;2023-03-03T03:49:47;4.80;96.80
1830;DHT22;914;48.118;11.600;2023-03-03T03:52:13;4.80;96.60
1830;DHT22;914;48.118;11.600;2023-03-03T03:54:39;4.80;96.50
1830;DHT22;914;48.118;11.600;2023-03-03T03:57:04;4.90;96.50
1830;DHT22;914;48.118;11.600;2023-03-03T03:59:30;5.00;96.40
1830;DHT22;914;48.118;11.600;2023-03-03T04:01:56;5.00;95.90
1830;DHT22;914;48.118;11.600;2023-03-03T04:04:22;4.90;96.40
1830;DHT22;914;48.118;11.600;2023-03-03T04:06:48;4.60;96.90
1830;DHT22;914;48.118;11.600;2023-03-03T04:09:14;4.70;97.00
1830;DHT22;914;48.118;11.600;2023-03-03T04:11:40;4.60;97.50
1830;DHT22;914;48.118;11.600;2023-03-03T04:14:06;4.50;98.40
1830;DHT22;914;48.118;11.600;2023-03-03T04:16:32;4.70;98.10
1830;DHT22;914;48.118;11.600;2023-03-03T04:18:57;4.80;97.70
1830;DHT22;914;48.118;11.600;2023-03-03T04:21:23;4.70;97.50
1830;DHT22;914;48.118;11.600;2023-03-03T04:23:50;4.70;97.60
1830;DHT22;914;48.118;11.600;2023-03-03T04:26:17;4.80;97.60
1830;DHT22;914;48.118;11.600;2023-03-03T04:28:43;4.80;97.50
1830;DHT22;914;48.118;11.600;2023-03-03T04:31:10;4.80;97.50
1830;DHT22;914;48.118;11.600;2023-03-03T04:33:35;4.90;97.40
1830;DHT22;914;48.118;11.600;2023-03-03T04:36:01;5.00;97.40
1830;DHT22;914;48.118;11.600;2023-03-03T04:38:27;5.20;96.60
1830;DHT22;914;48.118;11.600;2023-03-03T04:40:52;4.90;97.10
1830;DHT22;914;48.118;11.600;2023-03-03T04:43:18;4.90;97.20
1830;DHT22;914;48.118;11.600;2023-03-03T04:45:44;4.90;97.30
1830;DHT22;914;48.118;11.600;2023-03-03T04:48:10;5.00;97.40
1830;DHT22;914;48.118;11.600;2023-03-03T04:50:35;5.20;97.40
1830;DHT22;914;48.118;11.600;2023-03-03T04:53:01;5.20;97.00
1830;DHT22;914;48.118;11.600;2023-03-03T04:55:27;5.20;96.90
1830;DHT22;914;48.118;11.600;2023-03-03T04:57:52;5.10;97.20
1830;DHT22;914;48.118;11.600;2023-03-03T05:00:18;5.20;97.00
1830;DHT22;914;48.118;11.600;2023-03-03T05:02:46;5.30;97.00
1830;DHT22;914;48.118;11.600;2023-03-03T05:05:12;5.50;96.40
1830;DHT22;914;48.118;11.600;2023-03-03T05:07:38;5.30;96.30
1830;DHT22;914;48.118;11.600;2023-03-03T05:10:05;5.30;96.60
1830;DHT22;914;48.118;11.600;2023-03-03T05:12:31;5.40;96.50
1830;DHT22;914;48.118;11.600;2023-03-03T05:14:56;5.40;96.00
1830;DHT22;914;48.118;11.600;2023-03-03T05:17:22;5.20;96.40
1830;DHT22;914;48.118;11.600;2023-03-03T05:19:48;4.90;96.70
1830;DHT22;914;48.118;11.600;2023-03-03T05:22:17;5.30;96.70
1830;DHT22;914;48.118;11.600;2023-03-03T05:24:42;5.10;96.80
1830;DHT22;914;48.118;11.600;2023-03-03T05:27:08;5.30;96.60
1830;DHT22;914;48.118;11.600;2023-03-03T05:29:34;5.20;96.40
1830;DHT22;914;48.118;11.600;2023-03-03T05:32:00;4.90;97.00
1830;DHT22;914;48.118;11.600;2023-03-03T05:34:26;5.00;97.00
1830;DHT22;914;48.118;11.600;2023-03-03T05:36:51;4.90;97.10
1830;DHT22;914;48.118;11.600;2023-03-03T05:39:17;4.90;97.10
1830;DHT22;914;48.118;11.600;2023-03-03T05:41:43;5.10;97.30
1830;DHT22;914;48.118;11.600;2023-03-03T05:44:08;5.20;96.70
1830;DHT22;914;48.118;11.600;2023-03-03T05:46:34;5.20;96.90
1830;DHT22;914;48.118;11.600;2023-03-03T05:49:01;5.30;96.50
1830;DHT22;914;48.118;11.600;2023-03-03T05:51:27;5.20;97.20
1830;DHT22;914;48.118;11.600;2023-03-03T05:53:52;5.30;96.60
1830;DHT22;914;48.118;11.600;2023-03-03T05:56:18;5.20;96.50
1830;DHT22;914;48.118;11.600;2023-03-03T05:58:44;5.10;96.70
1830;DHT22;914;48.118;11.600;2023-03-03T06:01:10;4.90;97.00
1830;DHT22;914;48.118;11.600;2023-03-03T06:03:36;4.90;97.40
1830;DHT22;914;48.118;11.600;2023-03-03T06:06:02;4.90;97.20
1830;DHT22;914;48.118;11.600;2023-03-03T06:08:27;4.80;97.20
1830;DHT22;914;48.118;11.600;2023-03-03T06:10:54;4.80;97.50
1830;DHT22;914;48.118;11.600;2023-03-03T06:13:19;5.20;97.50
1830;DHT22;914;48.118;11.600;2023-03-03T06:15:45;5.20;96.60
1830;DHT22;914;48.118;11.600;2023-03-03T06:18:11;5.30;96.90
1830;DHT22;914;48.118;11.600;2023-03-03T06:20:36;5.40;96.30
1830;DHT22;914;48.118;11.600;2023-03-03T06:23:03;5.40;96.20
1830;DHT22;914;48.118;11.600;2023-03-03T06:25:29;5.70;95.80
1830;DHT22;914;48.118;11.600;2023-03-03T06:27:55;5.50;95.60
1830;DHT22;914;48.118;11.600;2023-03-03T06:30:22;5.40;95.90
1830;DHT22;914;48.118;11.600;2023-03-03T06:32:48;5.30;96.50
1830;DHT22;914;48.118;11.600;2023-03-03T06:35:13;5.40;96.40
1830;DHT22;914;48.118;11.600;2023-03-03T06:37:39;5.50;95.70
1830;DHT22;914;48.118;11.600;2023-03-03T06:40:05;5.20;96.30
1830;DHT22;914;48.118;11.600;2023-03-03T06:42:31;5.30;96.50
1830;DHT22;914;48.118;11.600;2023-03-03T06:44:57;5.10;96.50
1830;DHT22;914;48.118;11.600;2023-03-03T06:47:22;5.20;97.00
1830;DHT22;914;48.118;11.600;2023-03-03T06:49:48;5.30;96.40
1830;DHT22;914;48.118;11.600;2023-03-03T06:52:19;5.30;96.10
1830;DHT22;914;48.118;11.600;2023-03-03T06:54:45;5.30;96.10
1830;DHT22;914;48.118;11.600;2023-03-03T06:57:28;5.40;96.50
1830;DHT22;914;48.118;11.600;2023-03-03T06:59:57;5.50;95.90
1830;DHT22;914;48.118;11.600;2023-03-03T07:02:24;5.40;96.40
1830;DHT22;914;48.118;11.600;2023-03-03T07:04:52;5.40;96.10
1830;DHT22;914;48.118;11.600;2023-03-03T07:07:22;5.00;96.60
1830;DHT22;914;48.118;11.600;2023-03-03T07:09:52;4.80;97.10
1830;DHT22;914;48.118;11.600;2023-03-03T07:12:29;4.80;97.20
1830;DHT22;914;48.118;11.600;2023-03-03T07:17:47;5.00;96.80
1830;DHT22;914;48.118;11.600;2023-03-03T07:22:51;5.10;97.20
1830;DHT22;914;48.118;11.600;2023-03-03T07:25:36;5.20;97.40
1830;DHT22;914;48.118;11.600;2023-03-03T07:28:25;5.00;97.30
1830;DHT22;914;48.118;11.600;2023-03-03T07:30:56;5.10;97.30
1830;DHT22;914;48.118;11.600;2023-03-03T07:33:33;5.00;97.30
1830;DHT22;914;48.118;11.600;2023-03-03T07:36:02;4.80;97.30
1830;DHT22;914;48.118;11.600;2023-03-03T07:38:40;5.00;97.80
1830;DHT22;914;48.118;11.600;2023-03-03T07:41:14;5.60;96.80
1830;DHT22;914;48.118;11.600;2023-03-03T07:43:59;5.50;96.20
1830;DHT22;914;48.118;11.600;2023-03-03T07:46:42;5.20;96.50
1830;DHT22;914;48.118;11.600;2023-03-03T07:49:22;5.40;97.00
1830;DHT22;914;48.118;11.600;2023-03-03T07:51:54;5.40;96.60
1830;DHT22;914;48.118;11.600;2023-03-03T07:56:47;5.10;97.40
1830;DHT22;914;48.118;11.600;2023-03-03T07:59:24;5.20;97.40
1830;DHT22;914;48.118;11.600;2023-03-03T08:06:57;5.40;96.40
1830;DHT22;914;48.118;11.600;2023-03-03T08:09:35;5.50;96.70
1830;DHT22;914;48.118;11.600;2023-03-03T08:12:27;5.70;96.30
1830;DHT22;914;48.118;11.600;2023-03-03T08:14:55;5.50;96.50
1830;DHT22;914;48.118;11.600;2023-03-03T08:17:34;5.70;97.00
1830;DHT22;914;48.118;11.600;2023-03-03T08:20:00;5.70;96.20
1830;DHT22;914;48.118;11.600;2023-03-03T08:22:32;5.60;96.30
1830;DHT22;914;48.118;11.600;2023-03-03T08:25:00;5.50;96.40
1830;DHT22;914;48.118;11.600;2023-03-03T08:27:26;5.50;96.60
1830;DHT22;914;48.118;11.600;2023-03-03T08:29:52;5.70;96.60
1830;DHT22;914;48.118;11.600;2023-03-03T08:32:18;5.60;96.20
1830;DHT22;914;48.118;11.600;2023-03-03T08:34:44;5.70;96.40
1830;DHT22;914;48.118;11.600;2023-03-03T08:37:09;5.60;96.30
1830;DHT22;914;48.118;11.600;2023-03-03T08:39:35;6.20;95.90
1830;DHT22;914;48.118;11.600;2023-03-03T08:42:00;6.30;95.60
1830;DHT22;914;48.118;11.600;2023-03-03T08:44:26;6.00;95.80
1830;DHT22;914;48.118;11.600;2023-03-03T08:46:52;5.80;96.20
1830;DHT22;914;48.118;11.600;2023-03-03T08:49:17;6.20;96.10
1830;DHT22;914;48.118;11.600;2023-03-03T08:51:43;6.50;95.40
1830;DHT22;914;48.118;11.600;2023-03-03T08:54:09;6.20;95.40
1830;DHT22;914;48.118;11.600;2023-03-03T08:56:35;6.50;95.40
1830;DHT22;914;48.118;11.600;2023-03-03T08:59:00;6.30;95.00
1830;DHT22;914;48.118;11.600;2023-03-03T09:01:26;6.30;95.90
1830;DHT22;914;48.118;11.600;2023-03-03T09:03:52;6.40;95.70
1830;DHT22;914;48.118;11.600;2023-03-03T09:06:17;6.50;95.60
1830;DHT22;914;48.118;11.600;2023-03-03T09:08:43;6.70;94.80
1830;DHT22;914;48.118;11.600;2023-03-03T09:11:13;6.90;94.20
1830;DHT22;914;48.118;11.600;2023-03-03T09:13:39;7.00;94.60
1830;DHT22;914;48.118;11.600;2023-03-03T09:16:14;7.50;93.70
1830;DHT22;914;48.118;11.600;2023-03-03T09:18:41;7.10;93.40
1830;DHT22;914;48.118;11.600;2023-03-03T09:21:23;6.90;94.00
1830;DHT22;914;48.118;11.600;2023-03-03T09:23:54;7.20;93.50
1830;DHT22;914;48.118;11.600;2023-03-03T09:26:27;7.00;93.40
1830;DHT22;914;48.118;11.600;2023-03-03T09:31:27;6.60;94.70
1830;DHT22;914;48.118;11.600;2023-03-03T09:33:55;6.90;94.50
1830;DHT22;914;48.118;11.600;2023-03-03T09:36:27;7.10;94.50
1830;DHT22;914;48.118;11.600;2023-03-03T09:38:54;7.20;94.40
1830;DHT22;914;48.118;11.600;2023-03-03T10:17:44;7.90;93.20
1830;DHT22;914;48.118;11.600;2023-03-03T10:23:00;7.90;92.80
1830;DHT22;914;48.118;11.600;2023-03-03T10:29:09;8.10;92.40
1830;DHT22;914;48.118;11.600;2023-03-03T10:32:08;8.50;91.30
1830;DHT22;914;48.118;11.600;2023-03-03T10:35:01;8.30;92.20
1830;DHT22;914;48.118;11.600;2023-03-03T10:40:44;8.00;92.10
1830;DHT22;914;48.118;11.600;2023-03-03T10:43:15;7.70;92.70
1830;DHT22;914;48.118;11.600;2023-03-03T11:00:14;7.50;93.30
1830;DHT22;914;48.118;11.600;2023-03-03T11:08:38;7.90;92.80
1830;DHT22;914;48.118;11.600;2023-03-03T11:14:23;8.30;92.20
1830;DHT22;914;48.118;11.600;2023-03-03T11:17:10;7.90;92.30
1830;DHT22;914;48.118;11.600;2023-03-03T11:36:22;8.50;92.30
1830;DHT22;914;48.118;11.600;2023-03-03T11:39:02;8.90;92.40
1830;DHT22;914;48.118;11.600;2023-03-03T11:42:21;8.90;91.20
1830;DHT22;914;48.118;11.600;2023-03-03T11:44:28;8.40;91.40
1830;DHT22;914;48.118;11.600;2023-03-03T11:47:09;8.10;92.20
1830;DHT22;914;48.118;11.600;2023-03-03T11:49:46;8.20;92.30
1830;DHT22;914;48.118;11.600;2023-03-03T11:58:07;8.70;91.40
1830;DHT22;914;48.118;11.600;2023-03-03T12:01:06;8.60;91.80
1830;DHT22;914;48.118;11.600;2023-03-03T12:03:40;9.20;91.60
1830;DHT22;914;48.118;11.600;2023-03-03T12:14:01;10.00;88.60
1830;DHT22;914;48.118;11.600;2023-03-03T12:16:44;9.50;89.70
1830;DHT22;914;48.118;11.600;2023-03-03T12:19:17;9.50;90.70
1830;DHT22;914;48.118;11.600;2023-03-03T12:24:58;9.50;89.10
1830;DHT22;914;48.118;11.600;2023-03-03T12:27:45;10.00;89.70
1830;DHT22;914;48.118;11.600;2023-03-03T12:38:37;10.30;86.80
1830;DHT22;914;48.118;11.600;2023-03-03T12:43:57;9.70;89.90
1830;DHT22;914;48.118;11.600;2023-03-03T12:49:04;10.10;86.80
1830;DHT22;914;48.118;11.600;2023-03-03T12:54:38;9.90;89.70
1830;DHT22;914;48.118;11.600;2023-03-03T12:57:41;10.00;86.40
1830;DHT22;914;48.118;11.600;2023-03-03T13:02:55;10.20;86.60
1830;DHT22;914;48.118;11.600;2023-03-03T13:11:27;10.40;87.40
1830;DHT22;914;48.118;11.600;2023-03-03T13:14:21;10.10;87.00
1830;DHT22;914;48.118;11.600;2023-03-03T13:19:40;9.50;89.50
1830;DHT22;914;48.118;11.600;2023-03-03T13:27:24;9.70;89.40
1830;DHT22;914;48.118;11.600;2023-03-03T13:29:57;9.90;87.40
1830;DHT22;914;48.118;11.600;2023-03-03T13:32:33;10.20;88.00
1830;DHT22;914;48.118;11.600;2023-03-03T13:37:44;9.90;87.50
1830;DHT22;914;48.118;11.600;2023-03-03T13:40:21;10.10;87.30
1830;DHT22;914;48.118;11.600;2023-03-03T13:43:12;10.60;86.30
1830;DHT22;914;48.118;11.600;2023-03-03T13:48:43;10.60;84.10
1830;DHT22;914;48.118;11.600;2023-03-03T13:57:15;11.40;85.00
1830;DHT22;914;48.118;11.600;2023-03-03T14:05:49;11.60;83.50
1830;DHT22;914;48.118;11.600;2023-03-03T14:11:16;12.50;80.00
1830;DHT22;914;48.118;11.600;2023-03-03T14:19:24;11.40;79.90
1830;DHT22;914;48.118;11.600;2023-03-03T14:21:52;11.70;82.40
1830;DHT22;914;48.118;11.600;2023-03-03T14:24:22;12.30;81.60
1830;DHT22;914;48.118;11.600;2023-03-03T14:26:53;12.40;80.50
1830;DHT22;914;48.118;11.600;2023-03-03T14:31:59;12.70;78.60
1830;DHT22;914;48.118;11.600;2023-03-03T14:34:39;12.80;78.50
1830;DHT22;914;48.118;11.600;2023-03-03T14:37:25;12.40;78.90
1830;DHT22;914;48.118;11.600;2023-03-03T14:40:21;12.20;79.70
1830;DHT22;914;48.118;11.600;2023-03-03T14:42:59;12.20;79.50
1830;DHT22;914;48.118;11.600;2023-03-03T14:45:34;12.40;78.70
1830;DHT22;914;48.118;11.600;2023-03-03T14:48:25;12.30;77.70
1830;DHT22;914;48.118;11.600;2023-03-03T14:51:24;11.60;77.50
1830;DHT22;914;48.118;11.600;2023-03-03T14:53:51;10.70;80.50
1830;DHT22;914;48.118;11.600;2023-03-03T14:56:32;10.80;82.70
1830;DHT22;914;48.118;11.600;2023-03-03T14:59:20;10.90;82.40
1830;DHT22;914;48.118;11.600;2023-03-03T15:01:56;11.00;82.50
1830;DHT22;914;48.118;11.600;2023-03-03T15:04:25;11.40;82.10
1830;DHT22;914;48.118;11.600;2023-03-03T15:06:53;11.90;79.90
1830;DHT22;914;48.118;11.600;2023-03-03T15:09:39;11.20;79.40
1830;DHT22;914;48.118;11.600;2023-03-03T15:12:22;10.40;80.60
1830;DHT22;914;48.118;11.600;2023-03-03T15:14:50;10.40;82.50
1830;DHT22;914;48.118;11.600;2023-03-03T15:20:09;10.30;81.30
1830;DHT22;914;48.118;11.600;2023-03-03T15:22:47;10.10;81.90
1830;DHT22;914;48.118;11.600;2023-03-03T15:25:38;10.10;83.90
1830;DHT22;914;48.118;11.600;2023-03-03T15:28:26;10.50;83.20
1830;DHT22;914;48.118;11.600;2023-03-03T15:31:26;10.70;81.50
1830;DHT22;914;48.118;11.600;2023-03-03T15:43:12;11.40;77.70
1830;DHT22;914;48.118;11.600;2023-03-03T15:55:05;11.30;77.70
1830;DHT22;914;48.118;11.600;2023-03-03T16:00:46;11.10;78.60
1830;DHT22;914;48.118;11.600;2023-03-03T16:03:55;10.80;79.30
1830;DHT22;914;48.118;11.600;2023-03-03T16:09:02;10.50;81.70
1830;DHT22;914;48.118;11.600;2023-03-03T16:14:37;10.70;80.30
1830;DHT22;914;48.118;11.600;2023-03-03T16:17:25;10.30;81.60
1830;DHT22;914;48.118;11.600;2023-03-03T16:25:35;10.80;80.80
1830;DHT22;914;48.118;11.600;2023-03-03T16:33:43;10.70;81.00
1830;DHT22;914;48.118;11.600;2023-03-03T16:39:14;10.50;81.70
1830;DHT22;914;48.118;11.600;2023-03-03T16:41:59;10.40;82.10
1830;DHT22;914;48.118;11.600;2023-03-03T16:45:22;10.40;82.30
1830;DHT22;914;48.118;11.600;2023-03-03T16:47:40;10.60;82.00
1830;DHT22;914;48.118;11.600;2023-03-03T16:50:22;10.40;81.00
1830;DHT22;914;48.118;11.600;2023-03-03T16:53:18;10.40;82.00
1830;DHT22;914;48.118;11.600;2023-03-03T16:56:04;10.60;81.70
1830;DHT22;914;48.118;11.600;2023-03-03T17:01:24;10.20;82.50
1830;DHT22;914;48.118;11.600;2023-03-03T17:04:02;10.20;82.80
1830;DHT22;914;48.118;11.600;2023-03-03T17:06:47;10.10;83.30
1830;DHT22;914;48.118;11.600;2023-03-03T17:20:45;9.80;85.40
1830;DHT22;914;48.118;11.600;2023-03-03T17:23:29;9.70;86.00
1830;DHT22;914;48.118;11.600;2023-03-03T17:34:20;9.80;86.20
1830;DHT22;914;48.118;11.600;2023-03-03T17:39:49;9.80;86.40
1830;DHT22;914;48.118;11.600;2023-03-03T17:45:07;9.70;87.00
1830;DHT22;914;48.118;11.600;2023-03-03T18:04:33;9.40;88.80
1830;DHT22;914;48.118;11.600;2023-03-03T18:16:07;9.30;88.90
1830;DHT22;914;48.118;11.600;2023-03-03T18:18:49;9.20;89.20
1830;DHT22;914;48.118;11.600;2023-03-03T18:26:42;9.30;90.20
1830;DHT22;914;48.118;11.600;2023-03-03T18:34:39;8.90;90.20
1830;DHT22;914;48.118;11.600;2023-03-03T18:37:33;8.80;90.30
1830;DHT22;914;48.118;11.600;2023-03-03T18:42:57;8.70;90.70
1830;DHT22;914;48.118;11.600;2023-03-03T18:48:10;8.80;90.50
1830;DHT22;914;48.118;11.600;2023-03-03T18:50:47;8.60;90.80
1830;DHT22;914;48.118;11.600;2023-03-03T18:55:57;8.30;91.20
1830;DHT22;914;48.118;11.600;2023-03-03T18:58:39;8.20;91.40
1830;DHT22;914;48.118;11.600;2023-03-03T19:01:33;8.10;91.80
1830;DHT22;914;48.118;11.600;2023-03-03T19:04:15;8.00;91.80
1830;DHT22;914;48.118;11.600;2023-03-03T19:09:17;8.00;91.80
1830;DHT22;914;48.118;11.600;2023-03-03T19:11:56;7.90;91.90
1830;DHT22;914;48.118;11.600;2023-03-03T19:16:53;7.90;92.00
1830;DHT22;914;48.118;11.600;2023-03-03T19:19:30;7.90;92.00
1830;DHT22;914;48.118;11.600;2023-03-03T19:27:34;7.80;92.40
1830;DHT22;914;48.118;11.600;2023-03-03T19:30:13;7.80;92.40
1830;DHT22;914;48.118;11.600;2023-03-03T19:33:27;7.80;92.50
1830;DHT22;914;48.118;11.600;2023-03-03T19:42:04;7.60;93.00
1830;DHT22;914;48.118;11.600;2023-03-03T19:47:22;7.70;92.80
1830;DHT22;914;48.118;11.600;2023-03-03T19:52:46;7.70;92.50
1830;DHT22;914;48.118;11.600;2023-03-03T19:55:22;7.60;92.50
1830;DHT22;914;48.118;11.600;2023-03-03T20:00:43;7.60;92.50
1830;DHT22;914;48.118;11.600;2023-03-03T20:06:28;7.50;92.80
1830;DHT22;914;48.118;11.600;2023-03-03T20:09:02;7.20;93.30
1830;DHT22;914;48.118;11.600;2023-03-03T20:14:46;6.90;94.00
1830;DHT22;914;48.118;11.600;2023-03-03T20:28:51;7.00;94.00
1830;DHT22;914;48.118;11.600;2023-03-03T20:42:44;6.30;96.10
1830;DHT22;914;48.118;11.600;2023-03-03T20:48:32;6.50;96.40
1830;DHT22;914;48.118;11.600;2023-03-03T20:51:16;6.40;96.00
1830;DHT22;914;48.118;11.600;2023-03-03T20:53:49;6.50;96.10
1830;DHT22;914;48.118;11.600;2023-03-03T20:59:18;6.50;95.80
1830;DHT22;914;48.118;11.600;2023-03-03T21:04:28;6.10;96.50
1830;DHT22;914;48.118;11.600;2023-03-03T21:07:01;6.10;97.10
1830;DHT22;914;48.118;11.600;2023-03-03T21:09:37;6.10;97.00
1830;DHT22;914;48.118;11.600;2023-03-03T21:12:30;6.00;97.40
1830;DHT22;914;48.118;11.600;2023-03-03T21:15:07;6.00;97.30
1830;DHT22;914;48.118;11.600;2023-03-03T21:17:36;6.00;97.50
1830;DHT22;914;48.118;11.600;2023-03-03T21:22:55;5.90;97.50
1830;DHT22;914;48.118;11.600;2023-03-03T21:25:49;6.00;97.10
1830;DHT22;914;48.118;11.600;2023-03-03T21:28:26;5.90;97.50
1830;DHT22;914;48.118;11.600;2023-03-03T21:31:13;5.80;97.70
1830;DHT22;914;48.118;11.600;2023-03-03T21:36:19;6.10;97.50
1830;DHT22;914;48.118;11.600;2023-03-03T21:38:46;6.20;97.10
1830;DHT22;914;48.118;11.600;2023-03-03T21:41:14;6.30;97.00
1830;DHT22;914;48.118;11.600;2023-03-03T21:43:43;6.30;96.80
1830;DHT22;914;48.118;11.600;2023-03-03T21:46:09;6.30;96.50
1830;DHT22;914;48.118;11.600;2023-03-03T21:48:41;6.30;96.30
1830;DHT22;914;48.118;11.600;2023-03-03T21:51:08;6.20;96.40
1830;DHT22;914;48.118;11.600;2023-03-03T21:53:34;6.10;96.60
1830;DHT22;914;48.118;11.600;2023-03-03T21:56:00;6.00;96.50
1830;DHT22;914;48.118;11.600;2023-03-03T21:58:26;5.90;96.80
1830;DHT22;914;48.118;11.600;2023-03-03T22:00:51;5.80;97.30
1830;DHT22;914;48.118;11.600;2023-03-03T22:03:17;5.80;97.50
1830;DHT22;914;48.118;11.600;2023-03-03T22:05:46;5.90;97.70
1830;DHT22;914;48.118;11.600;2023-03-03T22:08:13;5.90;97.40
1830;DHT22;914;48.118;11.600;2023-03-03T22:10:42;6.00;97.50
1830;DHT22;914;48.118;11.600;2023-03-03T22:13:09;5.90;97.40
1830;DHT22;914;48.118;11.600;2023-03-03T22:15:36;5.90;97.50
1830;DHT22;914;48.118;11.600;2023-03-03T22:18:02;5.80;97.50
1830;DHT22;914;48.118;11.600;2023-03-03T22:20:27;5.70;97.70
1830;DHT22;914;48.118;11.600;2023-03-03T22:22:53;5.60;97.90
1830;DHT22;914;48.118;11.600;2023-03-03T22:25:18;5.50;98.10
1830;DHT22;914;48.118;11.600;2023-03-03T22:27:44;5.50;98.10
1830;DHT22;914;48.118;11.600;2023-03-03T22:30:10;5.40;98.70
1830;DHT22;914;48.118;11.600;2023-03-03T22:32:36;5.40;98.70
1830;DHT22;914;48.118;11.600;2023-03-03T22:35:02;5.30;98.50
1830;DHT22;914;48.118;11.600;2023-03-03T22:37:28;5.40;98.90
1830;DHT22;914;48.118;11.600;2023-03-03T22:39:53;5.50;98.70
1830;DHT22;914;48.118;11.600;2023-03-03T22:42:19;5.60;98.50
1830;DHT22;914;48.118;11.600;2023-03-03T22:44:45;5.70;98.50
1830;DHT22;914;48.118;11.600;2023-03-03T22:47:10;5.80;98.10
1830;DHT22;914;48.118;11.600;2023-03-03T22:49:36;5.60;97.90
1830;DHT22;914;48.118;11.600;2023-03-03T22:52:02;5.60;98.10
1830;DHT22;914;48.118;11.600;2023-03-03T22:54:28;5.70;98.10
1830;DHT22;914;48.118;11.600;2023-03-03T22:56:53;5.60;97.90
1830;DHT22;914;48.118;11.600;2023-03-03T22:59:19;5.50;98.00
1830;DHT22;914;48.118;11.600;2023-03-03T23:01:45;5.60;98.30
1830;DHT22;914;48.118;11.600;2023-03-03T23:04:12;5.60;98.10
1830;DHT22;914;48.118;11.600;2023-03-03T23:06:38;5.70;98.10